sensor_id;sensor_type;location;lat;lon;timestamp;temperature;humidity
4509;DHT22;2267;48.816;9.230;2023-05-10T00:01:33;17.90;99.90
4509;DHT22;2267;48.816;9.230;2023-05-10T00:04:00;17.90;99.90
4509;DHT22;2267;48.816;9.230;2023-05-10T00:06:27;17.80;99.90
4509;DHT22;2267;48.816;9.230;2023-05-10T00:08:54;17.80;99.90
4509;DHT22;2267;48.816;9.230;2023-05-10T00:11:21;17.80;99.90
4509;DHT22;2267;48.816;9.230;2023-05-10T00:13:48;17.70;99.90
4509;DHT22;2267;48.816;9.230;2023-05-10T00:16:15;17.70;99.90
4509;DHT22;2267;48.816;9.230;2023-05-10T00:18:42;17.70;99.90
4509;DHT22;2267;48.816;9.230;2023-05-10T00:21:09;17.70;99.90
4509;DHT22;2267;48.816;9.230;2023-05-10T00:23:35;17.70;99.90
4509;DHT22;2267;48.816;9.230;2023-05-10T00:26:02;17.60;99.90
4509;DHT22;2267;48.816;9.230;2023-05-10T00:28:29;17.50;99.90
4509;DHT22;2267;48.816;9.230;2023-05-10T00:30:56;17.50;99.90
4509;DHT22;2267;48.816;9.230;2023-05-10T00:33:23;17.50;99.90
4509;DHT22;2267;48.816;9.230;2023-05-10T00:35:50;17.50;99.90
4509;DHT22;2267;48.816;9.230;2023-05-10T00:38:17;17.40;99.90
4509;DHT22;2267;48.816;9.230;2023-05-10T00:40:44;17.40;99.90
4509;DHT22;2267;48.816;9.230;2023-05-10T00:43:10;17.30;99.90
4509;DHT22;2267;48.816;9.230;2023-05-10T00:45:37;17.30;99.90
4509;DHT22;2267;48.816;9.230;2023-05-10T00:48:06;17.30;99.90
4509;DHT22;2267;48.816;9.230;2023-05-10T00:50:33;17.20;99.90
4509;DHT22;2267;48.816;9.230;2023-05-10T00:53:01;17.20;99.90
4509;DHT22;2267;48.816;9.230;2023-05-10T00:55:28;17.20;99.90
4509;DHT22;2267;48.816;9.230;2023-05-10T00:57:55;17.20;99.90
4509;DHT22;2267;48.816;9.230;2023-05-10T01:00:22;17.20;99.90
4509;DHT22;2267;48.816;9.230;2023-05-10T01:02:49;17.20;99.90
4509;DHT22;2267;48.816;9.230;2023-05-10T01:05:16;17.20;99.90
4509;DHT22;2267;48.816;9.230;2023-05-10T01:07:43;17.20;99.90
4509;DHT22;2267;48.816;9.230;2023-05-10T01:13:55;17.10;99.90
4509;DHT22;2267;48.816;9.230;2023-05-10T01:16:23;17.00;99.90
4509;DHT22;2267;48.816;9.230;2023-05-10T01:18:51;16.90;99.90
4509;DHT22;2267;48.816;9.230;2023-05-10T01:35:43;16.80;99.90
4509;DHT22;2267;48.816;9.230;2023-05-10T01:38:22;16.80;99.90
4509;DHT22;2267;48.816;9.230;2023-05-10T01:41:17;16.80;99.90
4509;DHT22;2267;48.816;9.230;2023-05-10T01:44:01;16.80;99.90
4509;DHT22;2267;48.816;9.230;2023-05-10T01:46:37;16.80;99.90
4509;DHT22;2267;48.816;9.230;2023-05-10T01:49:20;16.80;99.90
4509;DHT22;2267;48.816;9.230;2023-05-10T01:51:52;16.80;99.90
4509;DHT22;2267;48.816;9.230;2023-05-10T01:54:22;16.80;99.90
4509;DHT22;2267;48.816;9.230;2023-05-10T01:56:56;16.90;99.90
4509;DHT22;2267;48.816;9.230;2023-05-10T01:59:29;16.90;99.90
4509;DHT22;2267;48.816;9.230;2023-05-10T02:01:58;16.80;99.90
4509;DHT22;2267;48.816;9.230;2023-05-10T02:04:26;16.80;99.90
4509;DHT22;2267;48.816;9.230;2023-05-10T02:06:54;16.90;99.90
4509;DHT22;2267;48.816;9.230;2023-05-10T02:09:22;16.90;99.90
4509;DHT22;2267;48.816;9.230;2023-05-10T02:11:50;16.90;99.90
4509;DHT22;2267;48.816;9.230;2023-05-10T02:14:18;16.90;99.90
4509;DHT22;2267;48.816;9.230;2023-05-10T02:16:46;16.90;99.90
4509;DHT22;2267;48.816;9.230;2023-05-10T02:19:14;16.80;99.90
4509;DHT22;2267;48.816;9.230;2023-05-10T02:21:41;16.80;99.90
4509;DHT22;2267;48.816;9.230;2023-05-10T02:24:10;16.80;99.90
4509;DHT22;2267;48.816;9.230;2023-05-10T02:26:38;16.80;99.90
4509;DHT22;2267;48.816;9.230;2023-05-10T02:29:06;16.80;99.90
4509;DHT22;2267;48.816;9.230;2023-05-10T02:31:34;16.80;99.90
4509;DHT22;2267;48.816;9.230;2023-05-10T02:34:02;16.80;99.90
4509;DHT22;2267;48.816;9.230;2023-05-10T02:36:30;16.80;99.90
4509;DHT22;2267;48.816;9.230;2023-05-10T02:38:59;16.80;99.90
4509;DHT22;2267;48.816;9.230;2023-05-10T02:41:28;16.70;99.90
4509;DHT22;2267;48.816;9.230;2023-05-10T02:43:59;16.70;99.90
4509;DHT22;2267;48.816;9.230;2023-05-10T02:46:26;16.70;99.90
4509;DHT22;2267;48.816;9.230;2023-05-10T02:48:53;16.70;99.90
4509;DHT22;2267;48.816;9.230;2023-05-10T02:51:23;16.70;99.90
4509;DHT22;2267;48.816;9.230;2023-05-10T02:53:53;16.80;99.90
4509;DHT22;2267;48.816;9.230;2023-05-10T02:56:28;16.70;99.90
4509;DHT22;2267;48.816;9.230;2023-05-10T02:58:56;16.80;99.90
4509;DHT22;2267;48.816;9.230;2023-05-10T03:01:23;16.80;99.90
4509;DHT22;2267;48.816;9.230;2023-05-10T03:03:50;16.80;99.90
4509;DHT22;2267;48.816;9.230;2023-05-10T03:06:17;16.70;99.90
4509;DHT22;2267;48.816;9.230;2023-05-10T03:08:45;16.70;99.90
4509;DHT22;2267;48.816;9.230;2023-05-10T03:16:50;16.70;99.90
4509;DHT22;2267;48.816;9.230;2023-05-10T03:19:30;16.70;99.90
4509;DHT22;2267;48.816;9.230;2023-05-10T03:22:02;16.70;99.90
4509;DHT22;2267;48.816;9.230;2023-05-10T03:24:30;16.70;99.90
4509;DHT22;2267;48.816;9.230;2023-05-10T03:27:00;16.70;99.90
4509;DHT22;2267;48.816;9.230;2023-05-10T03:29:30;16.70;99.90
4509;DHT22;2267;48.816;9.230;2023-05-10T03:31:58;16.70;99.90
4509;DHT22;2267;48.816;9.230;2023-05-10T03:34:26;16.70;99.90
4509;DHT22;2267;48.816;9.230;2023-05-10T03:36:52;16.70;99.90
4509;DHT22;2267;48.816;9.230;2023-05-10T03:39:19;16.70;99.90
4509;DHT22;2267;48.816;9.230;2023-05-10T03:41:47;16.70;99.90
4509;DHT22;2267;48.816;9.230;2023-05-10T03:44:14;16.70;99.90
4509;DHT22;2267;48.816;9.230;2023-05-10T03:46:41;16.70;99.90
4509;DHT22;2267;48.816;9.230;2023-05-10T03:49:08;16.70;99.90
4509;DHT22;2267;48.816;9.230;2023-05-10T03:51:35;16.60;99.90
4509;DHT22;2267;48.816;9.230;2023-05-10T03:54:01;16.60;99.90
4509;DHT22;2267;48.816;9.230;2023-05-10T03:56:28;16.60;99.90
4509;DHT22;2267;48.816;9.230;2023-05-10T03:58:55;16.60;99.90
4509;DHT22;2267;48.816;9.230;2023-05-10T04:01:22;16.60;99.90
4509;DHT22;2267;48.816;9.230;2023-05-10T04:03:48;16.60;99.90
4509;DHT22;2267;48.816;9.230;2023-05-10T04:06:15;16.60;99.90
4509;DHT22;2267;48.816;9.230;2023-05-10T04:08:42;16.60;99.90
4509;DHT22;2267;48.816;9.230;2023-05-10T04:11:10;16.60;99.90
4509;DHT22;2267;48.816;9.230;2023-05-10T04:13:39;16.60;99.90
4509;DHT22;2267;48.816;9.230;2023-05-10T04:16:06;16.60;99.90
4509;DHT22;2267;48.816;9.230;2023-05-10T04:18:32;16.60;99.90
4509;DHT22;2267;48.816;9.230;2023-05-10T04:20:59;16.60;99.90
4509;DHT22;2267;48.816;9.230;2023-05-10T04:23:27;16.60;99.90
4509;DHT22;2267;48.816;9.230;2023-05-10T04:26:00;16.60;99.90
4509;DHT22;2267;48.816;9.230;2023-05-10T04:28:27;16.60;99.90
4509;DHT22;2267;48.816;9.230;2023-05-10T04:31:03;16.60;99.90
4509;DHT22;2267;48.816;9.230;2023-05-10T04:33:31;16.50;99.90
4509;DHT22;2267;48.816;9.230;2023-05-10T04:35:57;16.50;99.90
4509;DHT22;2267;48.816;9.230;2023-05-10T04:38:24;16.60;99.90
4509;DHT22;2267;48.816;9.230;2023-05-10T04:40:51;16.60;99.90
4509;DHT22;2267;48.816;9.230;2023-05-10T04:43:18;16.60;99.90
4509;DHT22;2267;48.816;9.230;2023-05-10T04:45:45;16.60;99.90
4509;DHT22;2267;48.816;9.230;2023-05-10T04:48:12;16.60;99.90
4509;DHT22;2267;48.816;9.230;2023-05-10T04:50:39;16.60;99.90
4509;DHT22;2267;48.816;9.230;2023-05-10T04:53:06;16.60;99.90
4509;DHT22;2267;48.816;9.230;2023-05-10T04:55:33;16.70;99.90
4509;DHT22;2267;48.816;9.230;2023-05-10T04:58:00;16.70;99.90
4509;DHT22;2267;48.816;9.230;2023-05-10T05:00:27;16.70;99.90
4509;DHT22;2267;48.816;9.230;2023-05-10T05:02:53;16.70;99.90
4509;DHT22;2267;48.816;9.230;2023-05-10T05:05:20;16.70;99.90
4509;DHT22;2267;48.816;9.230;2023-05-10T05:07:47;16.60;99.90
4509;DHT22;2267;48.816;9.230;2023-05-10T05:10:14;16.60;99.90
4509;DHT22;2267;48.816;9.230;2023-05-10T05:12:42;16.60;99.90
4509;DHT22;2267;48.816;9.230;2023-05-10T05:15:09;16.60;99.90
4509;DHT22;2267;48.816;9.230;2023-05-10T05:17:36;16.60;99.90
4509;DHT22;2267;48.816;9.230;2023-05-10T05:20:03;16.60;99.90
4509;DHT22;2267;48.816;9.230;2023-05-10T05:22:30;16.60;99.90
4509;DHT22;2267;48.816;9.230;2023-05-10T05:24:57;16.60;99.90
4509;DHT22;2267;48.816;9.230;2023-05-10T05:27:29;16.60;99.90
4509;DHT22;2267;48.816;9.230;2023-05-10T05:29:56;16.70;99.90
4509;DHT22;2267;48.816;9.230;2023-05-10T05:32:24;16.70;99.90
4509;DHT22;2267;48.816;9.230;2023-05-10T05:34:51;16.70;99.90
4509;DHT22;2267;48.816;9.230;2023-05-10T05:37:19;16.70;99.90
4509;DHT22;2267;48.816;9.230;2023-05-10T05:39:47;16.70;99.90
4509;DHT22;2267;48.816;9.230;2023-05-10T05:42:14;16.70;99.90
4509;DHT22;2267;48.816;9.230;2023-05-10T05:44:43;16.70;99.90
4509;DHT22;2267;48.816;9.230;2023-05-10T05:47:10;16.70;99.90
4509;DHT22;2267;48.816;9.230;2023-05-10T05:49:37;16.70;99.90
4509;DHT22;2267;48.816;9.230;2023-05-10T05:52:04;16.60;99.90
4509;DHT22;2267;48.816;9.230;2023-05-10T05:54:31;16.60;99.90
4509;DHT22;2267;48.816;9.230;2023-05-10T05:56:58;16.70;99.90
4509;DHT22;2267;48.816;9.230;2023-05-10T05:59:27;16.60;99.90
4509;DHT22;2267;48.816;9.230;2023-05-10T06:01:54;16.60;99.90
4509;DHT22;2267;48.816;9.230;2023-05-10T06:04:21;16.60;99.90
4509;DHT22;2267;48.816;9.230;2023-05-10T06:06:48;16.60;99.90
4509;DHT22;2267;48.816;9.230;2023-05-10T06:09:14;16.50;99.90
4509;DHT22;2267;48.816;9.230;2023-05-10T06:11:42;16.50;99.90
4509;DHT22;2267;48.816;9.230;2023-05-10T06:14:10;16.50;99.90
4509;DHT22;2267;48.816;9.230;2023-05-10T06:16:37;16.50;99.90
4509;DHT22;2267;48.816;9.230;2023-05-10T06:19:04;16.50;99.90
4509;DHT22;2267;48.816;9.230;2023-05-10T06:21:30;16.50;99.90
4509;DHT22;2267;48.816;9.230;2023-05-10T06:23:57;16.50;99.90
4509;DHT22;2267;48.816;9.230;2023-05-10T06:26:24;16.50;99.90
4509;DHT22;2267;48.816;9.230;2023-05-10T06:28:51;16.60;99.90
4509;DHT22;2267;48.816;9.230;2023-05-10T06:31:18;16.60;99.90
4509;DHT22;2267;48.816;9.230;2023-05-10T06:33:45;16.60;99.90
4509;DHT22;2267;48.816;9.230;2023-05-10T06:36:11;16.60;99.90
4509;DHT22;2267;48.816;9.230;2023-05-10T06:38:39;16.60;99.90
4509;DHT22;2267;48.816;9.230;2023-05-10T06:41:06;16.60;99.90
4509;DHT22;2267;48.816;9.230;2023-05-10T06:43:33;16.60;99.90
4509;DHT22;2267;48.816;9.230;2023-05-10T06:46:00;16.60;99.90
4509;DHT22;2267;48.816;9.230;2023-05-10T06:48:27;16.50;99.90
4509;DHT22;2267;48.816;9.230;2023-05-10T06:50:54;16.50;99.90
4509;DHT22;2267;48.816;9.230;2023-05-10T06:53:20;16.50;99.90
4509;DHT22;2267;48.816;9.230;2023-05-10T06:55:49;16.50;99.90
4509;DHT22;2267;48.816;9.230;2023-05-10T06:58:16;16.50;99.90
4509;DHT22;2267;48.816;9.230;2023-05-10T07:00:43;16.50;99.90
4509;DHT22;2267;48.816;9.230;2023-05-10T07:03:10;16.50;99.90
4509;DHT22;2267;48.816;9.230;2023-05-10T07:05:37;16.50;99.90
4509;DHT22;2267;48.816;9.230;2023-05-10T07:08:04;16.50;99.90
4509;DHT22;2267;48.816;9.230;2023-05-10T07:10:31;16.50;99.90
4509;DHT22;2267;48.816;9.230;2023-05-10T07:12:59;16.50;99.90
4509;DHT22;2267;48.816;9.230;2023-05-10T07:15:27;16.40;99.90
4509;DHT22;2267;48.816;9.230;2023-05-10T07:17:54;16.40;99.90
4509;DHT22;2267;48.816;9.230;2023-05-10T07:20:22;16.40;99.90
4509;DHT22;2267;48.816;9.230;2023-05-10T07:22:49;16.50;99.90
4509;DHT22;2267;48.816;9.230;2023-05-10T07:25:16;16.50;99.90
4509;DHT22;2267;48.816;9.230;2023-05-10T07:27:43;16.50;99.90
4509;DHT22;2267;48.816;9.230;2023-05-10T07:30:10;16.50;99.90
4509;DHT22;2267;48.816;9.230;2023-05-10T07:32:37;16.60;99.90
4509;DHT22;2267;48.816;9.230;2023-05-10T07:35:06;16.60;99.90
4509;DHT22;2267;48.816;9.230;2023-05-10T07:37:33;16.70;99.90
4509;DHT22;2267;48.816;9.230;2023-05-10T07:40:00;16.70;99.90
4509;DHT22;2267;48.816;9.230;2023-05-10T07:42:27;16.70;99.90
4509;DHT22;2267;48.816;9.230;2023-05-10T07:44:53;16.70;99.90
4509;DHT22;2267;48.816;9.230;2023-05-10T07:47:20;16.80;99.90
4509;DHT22;2267;48.816;9.230;2023-05-10T07:49:47;16.80;99.90
4509;DHT22;2267;48.816;9.230;2023-05-10T07:52:14;16.90;99.90
4509;DHT22;2267;48.816;9.230;2023-05-10T07:54:42;16.90;99.90
4509;DHT22;2267;48.816;9.230;2023-05-10T07:57:08;17.00;99.90
4509;DHT22;2267;48.816;9.230;2023-05-10T07:59:35;17.00;99.90
4509;DHT22;2267;48.816;9.230;2023-05-10T08:02:02;16.90;99.90
4509;DHT22;2267;48.816;9.230;2023-05-10T08:04:29;17.00;99.90
4509;DHT22;2267;48.816;9.230;2023-05-10T08:06:56;17.00;99.90
4509;DHT22;2267;48.816;9.230;2023-05-10T08:09:22;17.00;99.90
4509;DHT22;2267;48.816;9.230;2023-05-10T08:11:50;17.00;99.90
4509;DHT22;2267;48.816;9.230;2023-05-10T08:14:17;17.00;99.90
4509;DHT22;2267;48.816;9.230;2023-05-10T08:16:44;16.90;99.90
4509;DHT22;2267;48.816;9.230;2023-05-10T08:19:11;16.80;99.90
4509;DHT22;2267;48.816;9.230;2023-05-10T08:21:38;16.80;99.90
4509;DHT22;2267;48.816;9.230;2023-05-10T08:24:07;16.80;99.90
4509;DHT22;2267;48.816;9.230;2023-05-10T08:26:33;16.90;99.90
4509;DHT22;2267;48.816;9.230;2023-05-10T08:29:00;16.90;99.90
4509;DHT22;2267;48.816;9.230;2023-05-10T08:31:27;17.00;99.90
4509;DHT22;2267;48.816;9.230;2023-05-10T08:33:54;17.00;99.90
4509;DHT22;2267;48.816;9.230;2023-05-10T08:36:21;17.00;99.90
4509;DHT22;2267;48.816;9.230;2023-05-10T08:38:50;17.10;99.90
4509;DHT22;2267;48.816;9.230;2023-05-10T08:41:22;17.10;99.90
4509;DHT22;2267;48.816;9.230;2023-05-10T08:43:51;17.10;99.90
4509;DHT22;2267;48.816;9.230;2023-05-10T08:46:19;17.20;99.90
4509;DHT22;2267;48.816;9.230;2023-05-10T08:48:48;17.30;99.90
4509;DHT22;2267;48.816;9.230;2023-05-10T08:51:22;17.30;99.90
4509;DHT22;2267;48.816;9.230;2023-05-10T08:53:50;17.30;99.90
4509;DHT22;2267;48.816;9.230;2023-05-10T08:56:17;17.30;99.90
4509;DHT22;2267;48.816;9.230;2023-05-10T08:58:44;17.30;99.90
4509;DHT22;2267;48.816;9.230;2023-05-10T09:01:12;17.30;99.90
4509;DHT22;2267;48.816;9.230;2023-05-10T09:03:40;17.40;99.90
4509;DHT22;2267;48.816;9.230;2023-05-10T09:06:07;17.40;99.90
4509;DHT22;2267;48.816;9.230;2023-05-10T09:08:34;17.40;99.90
4509;DHT22;2267;48.816;9.230;2023-05-10T09:11:03;17.50;99.90
4509;DHT22;2267;48.816;9.230;2023-05-10T09:13:30;17.60;99.90
4509;DHT22;2267;48.816;9.230;2023-05-10T09:15:58;17.60;99.90
4509;DHT22;2267;48.816;9.230;2023-05-10T09:18:39;17.60;99.90
4509;DHT22;2267;48.816;9.230;2023-05-10T09:21:06;17.60;99.90
4509;DHT22;2267;48.816;9.230;2023-05-10T09:23:33;17.60;99.90
4509;DHT22;2267;48.816;9.230;2023-05-10T09:26:06;17.70;99.90
4509;DHT22;2267;48.816;9.230;2023-05-10T09:28:56;17.80;99.90
4509;DHT22;2267;48.816;9.230;2023-05-10T09:31:23;17.70;99.90
4509;DHT22;2267;48.816;9.230;2023-05-10T09:33:52;17.70;99.90
4509;DHT22;2267;48.816;9.230;2023-05-10T09:36:19;17.70;99.90
4509;DHT22;2267;48.816;9.230;2023-05-10T09:38:50;17.80;99.90
4509;DHT22;2267;48.816;9.230;2023-05-10T09:41:20;17.80;99.90
4509;DHT22;2267;48.816;9.230;2023-05-10T09:43:47;17.80;99.90
4509;DHT22;2267;48.816;9.230;2023-05-10T09:46:17;17.80;99.90
4509;DHT22;2267;48.816;9.230;2023-05-10T09:48:46;17.90;99.90
4509;DHT22;2267;48.816;9.230;2023-05-10T09:51:20;17.90;99.90
4509;DHT22;2267;48.816;9.230;2023-05-10T09:53:47;17.90;99.90
4509;DHT22;2267;48.816;9.230;2023-05-10T09:56:32;17.80;99.90
4509;DHT22;2267;48.816;9.230;2023-05-10T09:59:03;17.90;99.90
4509;DHT22;2267;48.816;9.230;2023-05-10T10:01:30;17.90;99.90
4509;DHT22;2267;48.816;9.230;2023-05-10T10:03:58;17.80;99.90
4509;DHT22;2267;48.816;9.230;2023-05-10T10:06:25;17.90;99.90
4509;DHT22;2267;48.816;9.230;2023-05-10T10:08:56;17.90;99.90
4509;DHT22;2267;48.816;9.230;2023-05-10T10:11:23;17.90;99.90
4509;DHT22;2267;48.816;9.230;2023-05-10T10:13:50;17.90;99.90
4509;DHT22;2267;48.816;9.230;2023-05-10T10:16:17;18.00;99.90
4509;DHT22;2267;48.816;9.230;2023-05-10T10:18:44;18.00;99.90
4509;DHT22;2267;48.816;9.230;2023-05-10T10:21:13;18.00;99.90
4509;DHT22;2267;48.816;9.230;2023-05-10T10:23:41;18.10;99.90
4509;DHT22;2267;48.816;9.230;2023-05-10T10:26:08;18.00;99.90
4509;DHT22;2267;48.816;9.230;2023-05-10T10:29:20;17.90;99.90
4509;DHT22;2267;48.816;9.230;2023-05-10T10:32:06;17.90;99.90
4509;DHT22;2267;48.816;9.230;2023-05-10T10:34:35;17.90;99.90
4509;DHT22;2267;48.816;9.230;2023-05-10T10:37:06;17.90;99.90
4509;DHT22;2267;48.816;9.230;2023-05-10T10:39:33;17.90;99.90
4509;DHT22;2267;48.816;9.230;2023-05-10T10:42:04;17.90;99.90
4509;DHT22;2267;48.816;9.230;2023-05-10T10:44:35;17.90;99.90
4509;DHT22;2267;48.816;9.230;2023-05-10T10:49:49;18.10;99.90
4509;DHT22;2267;48.816;9.230;2023-05-10T10:52:34;18.20;99.90
4509;DHT22;2267;48.816;9.230;2023-05-10T10:57:48;18.20;99.90
4509;DHT22;2267;48.816;9.230;2023-05-10T11:00:28;18.20;99.90
4509;DHT22;2267;48.816;9.230;2023-05-10T11:03:10;18.20;99.90
4509;DHT22;2267;48.816;9.230;2023-05-10T11:05:49;18.20;99.90
4509;DHT22;2267;48.816;9.230;2023-05-10T11:08:32;18.20;99.90
4509;DHT22;2267;48.816;9.230;2023-05-10T11:11:05;18.20;99.90
4509;DHT22;2267;48.816;9.230;2023-05-10T11:16:24;18.20;99.90
4509;DHT22;2267;48.816;9.230;2023-05-10T11:21:26;18.20;99.90
4509;DHT22;2267;48.816;9.230;2023-05-10T11:23:55;18.10;99.90
4509;DHT22;2267;48.816;9.230;2023-05-10T11:26:24;18.10;99.90
4509;DHT22;2267;48.816;9.230;2023-05-10T11:28:53;18.10;99.90
4509;DHT22;2267;48.816;9.230;2023-05-10T11:31:22;18.00;99.90
4509;DHT22;2267;48.816;9.230;2023-05-10T11:33:52;18.10;99.90
4509;DHT22;2267;48.816;9.230;2023-05-10T11:36:32;18.10;99.90
4509;DHT22;2267;48.816;9.230;2023-05-10T11:38:59;18.10;99.90
4509;DHT22;2267;48.816;9.230;2023-05-10T11:41:28;18.10;99.90
4509;DHT22;2267;48.816;9.230;2023-05-10T11:43:57;18.00;99.90
4509;DHT22;2267;48.816;9.230;2023-05-10T11:46:25;18.00;99.80
4509;DHT22;2267;48.816;9.230;2023-05-10T11:49:01;18.00;99.60
4509;DHT22;2267;48.816;9.230;2023-05-10T11:51:34;18.00;99.60
4509;DHT22;2267;48.816;9.230;2023-05-10T11:54:06;18.10;99.70
4509;DHT22;2267;48.816;9.230;2023-05-10T11:56:35;18.10;99.30
4509;DHT22;2267;48.816;9.230;2023-05-10T11:59:03;18.10;99.50
4509;DHT22;2267;48.816;9.230;2023-05-10T12:01:31;18.10;99.50
4509;DHT22;2267;48.816;9.230;2023-05-10T12:03:58;18.10;99.90
4509;DHT22;2267;48.816;9.230;2023-05-10T12:06:29;18.10;99.40
4509;DHT22;2267;48.816;9.230;2023-05-10T12:08:56;18.10;99.30
4509;DHT22;2267;48.816;9.230;2023-05-10T12:11:26;18.00;99.00
4509;DHT22;2267;48.816;9.230;2023-05-10T12:13:54;18.10;99.50
4509;DHT22;2267;48.816;9.230;2023-05-10T12:16:25;18.00;99.30
4509;DHT22;2267;48.816;9.230;2023-05-10T12:18:53;18.00;98.70
4509;DHT22;2267;48.816;9.230;2023-05-10T12:21:21;17.90;98.60
4509;DHT22;2267;48.816;9.230;2023-05-10T12:23:53;17.90;98.60
4509;DHT22;2267;48.816;9.230;2023-05-10T12:26:24;17.90;98.90
4509;DHT22;2267;48.816;9.230;2023-05-10T12:28:53;17.90;99.00
4509;DHT22;2267;48.816;9.230;2023-05-10T12:31:21;17.90;99.20
4509;DHT22;2267;48.816;9.230;2023-05-10T12:33:47;17.90;98.80
4509;DHT22;2267;48.816;9.230;2023-05-10T12:36:16;17.90;99.10
4509;DHT22;2267;48.816;9.230;2023-05-10T12:38:45;17.90;98.40
4509;DHT22;2267;48.816;9.230;2023-05-10T12:41:16;17.90;98.60
4509;DHT22;2267;48.816;9.230;2023-05-10T12:43:44;17.90;98.40
4509;DHT22;2267;48.816;9.230;2023-05-10T12:46:16;17.90;98.90
4509;DHT22;2267;48.816;9.230;2023-05-10T12:48:44;18.00;99.00
4509;DHT22;2267;48.816;9.230;2023-05-10T12:51:32;18.00;98.70
4509;DHT22;2267;48.816;9.230;2023-05-10T12:53:59;18.00;98.10
4509;DHT22;2267;48.816;9.230;2023-05-10T12:56:26;18.00;98.00
4509;DHT22;2267;48.816;9.230;2023-05-10T12:58:52;18.10;97.70
4509;DHT22;2267;48.816;9.230;2023-05-10T13:01:19;18.10;96.80
4509;DHT22;2267;48.816;9.230;2023-05-10T13:03:46;18.10;96.80
4509;DHT22;2267;48.816;9.230;2023-05-10T13:06:13;18.00;97.10
4509;DHT22;2267;48.816;9.230;2023-05-10T13:08:40;18.00;97.50
4509;DHT22;2267;48.816;9.230;2023-05-10T13:11:07;18.00;97.70
4509;DHT22;2267;48.816;9.230;2023-05-10T13:13:34;18.10;97.70
4509;DHT22;2267;48.816;9.230;2023-05-10T13:16:00;18.10;97.80
4509;DHT22;2267;48.816;9.230;2023-05-10T13:18:27;18.00;97.70
4509;DHT22;2267;48.816;9.230;2023-05-10T13:20:54;18.00;97.60
4509;DHT22;2267;48.816;9.230;2023-05-10T13:23:22;18.10;97.90
4509;DHT22;2267;48.816;9.230;2023-05-10T13:25:49;18.00;97.60
4509;DHT22;2267;48.816;9.230;2023-05-10T13:28:16;18.00;97.70
4509;DHT22;2267;48.816;9.230;2023-05-10T13:30:43;18.00;98.10
4509;DHT22;2267;48.816;9.230;2023-05-10T13:33:09;18.00;98.50
4509;DHT22;2267;48.816;9.230;2023-05-10T13:35:36;18.00;98.60
4509;DHT22;2267;48.816;9.230;2023-05-10T13:38:03;18.10;98.50
4509;DHT22;2267;48.816;9.230;2023-05-10T13:40:30;18.10;98.40
4509;DHT22;2267;48.816;9.230;2023-05-10T13:42:57;18.10;98.30
4509;DHT22;2267;48.816;9.230;2023-05-10T13:45:24;18.10;97.80
4509;DHT22;2267;48.816;9.230;2023-05-10T13:47:50;18.20;98.00
4509;DHT22;2267;48.816;9.230;2023-05-10T13:50:18;18.20;97.90
4509;DHT22;2267;48.816;9.230;2023-05-10T13:52:45;18.20;97.50
4509;DHT22;2267;48.816;9.230;2023-05-10T13:55:12;18.20;97.50
4509;DHT22;2267;48.816;9.230;2023-05-10T13:57:39;18.30;97.40
4509;DHT22;2267;48.816;9.230;2023-05-10T14:00:07;18.30;97.80
4509;DHT22;2267;48.816;9.230;2023-05-10T14:02:34;18.30;97.80
4509;DHT22;2267;48.816;9.230;2023-05-10T14:05:01;18.30;97.30
4509;DHT22;2267;48.816;9.230;2023-05-10T14:07:28;18.20;96.30
4509;DHT22;2267;48.816;9.230;2023-05-10T14:09:54;18.20;96.20
4509;DHT22;2267;48.816;9.230;2023-05-10T14:12:21;18.20;96.40
4509;DHT22;2267;48.816;9.230;2023-05-10T14:14:48;18.10;96.50
4509;DHT22;2267;48.816;9.230;2023-05-10T14:17:15;18.20;97.10
4509;DHT22;2267;48.816;9.230;2023-05-10T14:19:42;18.20;97.00
4509;DHT22;2267;48.816;9.230;2023-05-10T14:22:09;18.30;96.60
4509;DHT22;2267;48.816;9.230;2023-05-10T14:24:37;18.30;96.70
4509;DHT22;2267;48.816;9.230;2023-05-10T14:27:04;18.30;96.70
4509;DHT22;2267;48.816;9.230;2023-05-10T14:29:32;18.40;96.90
4509;DHT22;2267;48.816;9.230;2023-05-10T14:31:59;18.40;96.20
4509;DHT22;2267;48.816;9.230;2023-05-10T14:34:26;18.40;96.30
4509;DHT22;2267;48.816;9.230;2023-05-10T14:36:53;18.40;96.40
4509;DHT22;2267;48.816;9.230;2023-05-10T14:39:20;18.50;95.90
4509;DHT22;2267;48.816;9.230;2023-05-10T14:41:46;18.40;94.60
4509;DHT22;2267;48.816;9.230;2023-05-10T14:44:13;18.40;94.20
4509;DHT22;2267;48.816;9.230;2023-05-10T14:46:41;18.40;93.40
4509;DHT22;2267;48.816;9.230;2023-05-10T14:49:08;18.40;93.90
4509;DHT22;2267;48.816;9.230;2023-05-10T14:51:35;18.40;93.80
4509;DHT22;2267;48.816;9.230;2023-05-10T14:54:03;18.40;94.10
4509;DHT22;2267;48.816;9.230;2023-05-10T14:56:30;18.50;94.40
4509;DHT22;2267;48.816;9.230;2023-05-10T14:58:57;18.50;94.30
4509;DHT22;2267;48.816;9.230;2023-05-10T15:01:24;18.50;94.00
4509;DHT22;2267;48.816;9.230;2023-05-10T15:03:52;18.60;94.00
4509;DHT22;2267;48.816;9.230;2023-05-10T15:06:23;18.60;93.60
4509;DHT22;2267;48.816;9.230;2023-05-10T15:08:56;18.60;93.60
4509;DHT22;2267;48.816;9.230;2023-05-10T15:11:23;18.60;93.70
4509;DHT22;2267;48.816;9.230;2023-05-10T15:13:50;18.60;93.90
4509;DHT22;2267;48.816;9.230;2023-05-10T15:16:17;18.60;93.80
4509;DHT22;2267;48.816;9.230;2023-05-10T15:18:44;18.60;94.20
4509;DHT22;2267;48.816;9.230;2023-05-10T15:21:11;18.60;93.90
4509;DHT22;2267;48.816;9.230;2023-05-10T15:23:38;18.60;93.80
4509;DHT22;2267;48.816;9.230;2023-05-10T15:26:05;18.60;94.10
4509;DHT22;2267;48.816;9.230;2023-05-10T15:28:32;18.60;94.00
4509;DHT22;2267;48.816;9.230;2023-05-10T15:31:00;18.60;94.20
4509;DHT22;2267;48.816;9.230;2023-05-10T15:33:27;18.60;94.50
4509;DHT22;2267;48.816;9.230;2023-05-10T15:35:54;18.70;95.00
4509;DHT22;2267;48.816;9.230;2023-05-10T15:38:21;18.70;95.30
4509;DHT22;2267;48.816;9.230;2023-05-10T15:40:47;18.70;95.30
4509;DHT22;2267;48.816;9.230;2023-05-10T15:43:14;18.70;95.00
4509;DHT22;2267;48.816;9.230;2023-05-10T15:45:41;18.70;94.80
4509;DHT22;2267;48.816;9.230;2023-05-10T15:48:08;18.70;94.70
4509;DHT22;2267;48.816;9.230;2023-05-10T15:50:35;18.70;95.00
4509;DHT22;2267;48.816;9.230;2023-05-10T15:53:02;18.80;95.20
4509;DHT22;2267;48.816;9.230;2023-05-10T15:55:29;18.80;95.10
4509;DHT22;2267;48.816;9.230;2023-05-10T15:57:56;18.80;95.00
4509;DHT22;2267;48.816;9.230;2023-05-10T16:00:22;18.80;95.70
4509;DHT22;2267;48.816;9.230;2023-05-10T16:02:51;18.80;95.40
4509;DHT22;2267;48.816;9.230;2023-05-10T16:05:19;18.80;95.40
4509;DHT22;2267;48.816;9.230;2023-05-10T16:07:46;18.80;95.70
4509;DHT22;2267;48.816;9.230;2023-05-10T16:10:13;18.80;95.80
4509;DHT22;2267;48.816;9.230;2023-05-10T16:12:40;18.70;96.10
4509;DHT22;2267;48.816;9.230;2023-05-10T16:15:07;18.70;96.10
4509;DHT22;2267;48.816;9.230;2023-05-10T16:17:34;18.70;96.30
4509;DHT22;2267;48.816;9.230;2023-05-10T16:20:01;18.70;96.50
4509;DHT22;2267;48.816;9.230;2023-05-10T16:22:28;18.70;96.60
4509;DHT22;2267;48.816;9.230;2023-05-10T16:24:56;18.70;97.10
4509;DHT22;2267;48.816;9.230;2023-05-10T16:27:23;18.70;96.60
4509;DHT22;2267;48.816;9.230;2023-05-10T16:29:50;18.70;96.60
4509;DHT22;2267;48.816;9.230;2023-05-10T16:32:17;18.60;96.70
4509;DHT22;2267;48.816;9.230;2023-05-10T16:34:44;18.60;96.50
4509;DHT22;2267;48.816;9.230;2023-05-10T16:37:11;18.60;96.50
4509;DHT22;2267;48.816;9.230;2023-05-10T16:39:40;18.60;96.60
4509;DHT22;2267;48.816;9.230;2023-05-10T16:42:07;18.60;96.40
4509;DHT22;2267;48.816;9.230;2023-05-10T16:44:33;18.70;96.60